createdAt,value
2024-02-08T00:02:27.664Z,100451.31
2024-02-08T00:04:54.400Z,100443.31
2024-02-08T00:07:21.040Z,100369.03
2024-02-08T00:09:47.632Z,100433.44
2024-02-08T00:12:14.228Z,100428.19
2024-02-08T00:14:40.781Z,100428.91
2024-02-08T00:17:07.515Z,100423.56
2024-02-08T00:19:34.248Z,100420.91
2024-02-08T00:22:01.116Z,100409.66
2024-02-08T00:24:32.065Z,100398.44
2024-02-08T00:26:59.755Z,100398.34
2024-02-08T00:29:29.363Z,100400.94
2024-02-08T00:31:55.948Z,100403.44
2024-02-08T00:34:24.301Z,100397.34
2024-02-08T00:36:52.141Z,100395.56
2024-02-08T00:39:18.890Z,100392.09
2024-02-08T00:41:51.441Z,100387.88
2024-02-08T00:44:20.921Z,100387.03
2024-02-08T00:46:52.916Z,100381.03
2024-02-08T00:49:19.667Z,100378.47
2024-02-08T00:51:46.216Z,100375.75
2024-02-08T00:54:15.626Z,100374.00
2024-02-08T00:56:43.147Z,100365.22
2024-02-08T00:59:12.197Z,100373.78
2024-02-08T01:01:41.377Z,100365.16
2024-02-08T01:04:11.726Z,100363.38
2024-02-08T01:06:42.387Z,100352.09
2024-02-08T01:09:09.097Z,100346.84
2024-02-08T01:11:36.145Z,100342.59
2024-02-08T01:14:05.736Z,100339.94
2024-02-08T01:16:34.915Z,100347.69
2024-02-08T01:19:01.758Z,100340.75
2024-02-08T01:21:28.329Z,100335.56
2024-02-08T01:23:58.170Z,100333.75
2024-02-08T01:26:25.892Z,100330.31
2024-02-08T01:28:55.758Z,100326.81
2024-02-08T01:31:26.329Z,100321.53
2024-02-08T01:33:52.896Z,100318.81
2024-02-08T01:36:19.438Z,100317.09
2024-02-08T01:38:46.106Z,100318.03
2024-02-08T01:41:12.641Z,100311.19
2024-02-08T01:43:39.204Z,100293.84
2024-02-08T01:46:09.916Z,100291.31
2024-02-08T01:48:38.042Z,100292.31
2024-02-08T01:51:13.231Z,100267.31
2024-02-08T01:53:40.745Z,100268.22
2024-02-08T01:56:07.565Z,100263.00
2024-02-08T01:58:34.587Z,100254.38
2024-02-08T02:01:01.797Z,100249.94
2024-02-08T02:03:33.159Z,100246.47
2024-02-08T02:06:03.112Z,100235.19
2024-02-08T02:08:34.448Z,100231.78
2024-02-08T02:11:07.390Z,100224.94
2024-02-08T02:13:37.314Z,100220.56
2024-02-08T02:16:04.069Z,100217.03
2024-02-08T02:18:32.979Z,100204.81
2024-02-08T02:21:00.150Z,100202.03
2024-02-08T02:23:29.522Z,100202.88
2024-02-08T02:25:59.346Z,100195.13
2024-02-08T02:28:30.503Z,100198.53
2024-02-08T02:30:59.188Z,100198.47
2024-02-08T02:33:26.870Z,100189.00
2024-02-08T02:35:54.184Z,100184.66
2024-02-08T02:38:23.860Z,100177.78
2024-02-08T02:40:50.706Z,100176.97
2024-02-08T02:43:17.288Z,100167.50
2024-02-08T02:45:46.472Z,100169.31
2024-02-08T02:48:13.468Z,100163.38
2024-02-08T02:50:43.646Z,100155.56
2024-02-08T02:53:11.022Z,100148.63
2024-02-08T02:55:38.751Z,100145.28
2024-02-08T02:58:05.537Z,100131.59
2024-02-08T03:00:36.454Z,100129.00
2024-02-08T03:03:10.106Z,100125.53
2024-02-08T03:05:37.349Z,100122.91
2024-02-08T03:08:07.763Z,100116.78
2024-02-08T03:10:35.886Z,100112.50
2024-02-08T03:13:02.483Z,100107.22
2024-02-08T03:15:29.054Z,100096.91
2024-02-08T03:17:55.683Z,100088.28
2024-02-08T03:20:31.185Z,100086.56
2024-02-08T03:23:00.600Z,100092.59
2024-02-08T03:25:27.482Z,100085.66
2024-02-08T03:27:54.512Z,100078.69
2024-02-08T03:30:24.296Z,100083.00
2024-02-08T03:32:52.055Z,100072.78
2024-02-08T03:35:20.548Z,100067.78
2024-02-08T03:37:49.637Z,100066.94
2024-02-08T03:40:22.151Z,100060.03
2024-02-08T03:42:49.751Z,100054.75
2024-02-08T03:45:18.965Z,100043.41
2024-02-08T03:47:46.621Z,100043.34
2024-02-08T03:50:13.480Z,100035.38
2024-02-08T03:52:42.859Z,100014.38
2024-02-08T03:55:09.715Z,100002.94
2024-02-08T03:57:37.757Z,100006.19
2024-02-08T04:00:14.450Z,99998.22
2024-02-08T04:02:44.717Z,99988.59
2024-02-08T04:05:21.393Z,99980.59
2024-02-08T04:08:01.375Z,99978.81
2024-02-08T04:10:36.797Z,99977.88
2024-02-08T04:13:22.126Z,99969.28
2024-02-08T04:16:07.190Z,99960.59
2024-02-08T04:18:52.647Z,99963.06
2024-02-08T04:21:37.880Z,99957.75
2024-02-08T04:24:23.293Z,99946.47
2024-02-08T04:27:08.567Z,99939.53
2024-02-08T04:29:56.272Z,99934.28
2024-02-08T04:32:41.344Z,99939.31
2024-02-08T04:35:26.477Z,99930.59
2024-02-08T04:38:11.631Z,99928.81
2024-02-08T04:40:57.258Z,99923.66
2024-02-08T04:43:42.388Z,99913.44
2024-02-08T04:46:37.708Z,99903.19
2024-02-08T04:49:22.604Z,99898.94
2024-02-08T04:52:08.076Z,99899.88
2024-02-08T04:54:34.634Z,99902.56
2024-02-08T04:57:01.278Z,99898.34
2024-02-08T04:59:27.935Z,99896.63
2024-02-08T05:01:54.772Z,99893.19
2024-02-08T05:04:26.778Z,99885.50
2024-02-08T05:06:55.045Z,99888.13
2024-02-08T05:09:21.886Z,99887.28
2024-02-08T05:11:51.525Z,99878.72
2024-02-08T05:14:22.204Z,99883.91
2024-02-08T05:16:48.967Z,99878.78
2024-02-08T05:19:16.167Z,99873.66
2024-02-08T05:21:46.091Z,99863.38
2024-02-08T05:24:15.010Z,99859.13
2024-02-08T05:26:42.346Z,99847.22
2024-02-08T05:29:20.750Z,99850.72
2024-02-08T05:31:49.618Z,99855.19
2024-02-08T05:34:18.533Z,99849.28
2024-02-08T05:36:46.269Z,99850.38
2024-02-08T05:39:25.358Z,99834.16
2024-02-08T05:41:55.026Z,99822.22
2024-02-08T05:44:22.024Z,99804.25
2024-02-08T05:46:49.362Z,99802.66
2024-02-08T05:49:16.739Z,99796.75
2024-02-08T05:51:53.824Z,99787.38
2024-02-08T05:54:38.232Z,99771.13
2024-02-08T05:57:06.707Z,99756.72
2024-02-08T05:59:38.862Z,99750.13
2024-02-08T06:02:16.826Z,99735.56
2024-02-08T06:04:52.265Z,99723.53
2024-02-08T06:07:21.622Z,99711.34
2024-02-08T06:09:49.075Z,99712.16
2024-02-08T06:12:34.781Z,99707.03
2024-02-08T06:15:01.327Z,99700.16
2024-02-08T06:17:34.375Z,99697.56
2024-02-08T06:20:11.044Z,99695.94
2024-02-08T06:22:41.144Z,99686.53
2024-02-08T06:25:28.824Z,99684.00
2024-02-08T06:28:02.835Z,99673.75
2024-02-08T06:30:32.744Z,99669.50
2024-02-08T06:33:26.357Z,99661.78
2024-02-08T06:35:58.032Z,99657.59
2024-02-08T06:38:42.297Z,99652.41
2024-02-08T06:41:24.997Z,99638.75
2024-02-08T06:44:30.604Z,99636.22
2024-02-08T06:47:19.639Z,99620.81
2024-02-08T06:50:04.718Z,99620.94
2024-02-08T06:52:49.628Z,99605.47
2024-02-08T06:55:36.146Z,99591.78
2024-02-08T06:58:21.174Z,99582.44
2024-02-08T07:01:06.165Z,99577.16
2024-02-08T07:03:51.452Z,99571.91
2024-02-08T07:06:36.602Z,99568.50
2024-02-08T07:09:22.002Z,99566.91
2024-02-08T07:12:07.023Z,99571.34
2024-02-08T07:14:52.332Z,99578.34
2024-02-08T07:17:37.358Z,99571.63
2024-02-08T07:20:39.521Z,99548.34
2024-02-08T07:23:24.647Z,99538.91
2024-02-08T07:26:09.554Z,99538.94
2024-02-08T07:28:54.923Z,99526.84
2024-02-08T07:31:40.370Z,99543.34
2024-02-08T07:34:25.527Z,99535.66
2024-02-08T07:37:10.880Z,99528.06
2024-02-08T07:39:38.008Z,99529.09
2024-02-08T07:42:21.322Z,99530.91
2024-02-08T07:44:56.279Z,99520.72
2024-02-08T07:47:29.049Z,99515.72
2024-02-08T07:50:05.941Z,99511.50
2024-02-08T07:52:39.834Z,99498.69
2024-02-08T07:55:22.066Z,99491.88
2024-02-08T07:58:09.737Z,99489.34
2024-02-08T08:00:36.768Z,99478.19
2024-02-08T08:03:10.188Z,99474.72
2024-02-08T08:05:43.082Z,99458.38
2024-02-08T08:08:26.796Z,99461.91
2024-02-08T08:11:04.782Z,99450.72
2024-02-08T08:13:50.946Z,99437.81
2024-02-08T08:16:43.676Z,99437.09
2024-02-08T08:19:11.132Z,99431.16
2024-02-08T08:21:58.326Z,99413.13
2024-02-08T08:24:28.664Z,99408.09
2024-02-08T08:27:08.145Z,99411.75
2024-02-08T08:29:45.214Z,99406.66
2024-02-08T08:32:30.594Z,99399.06
2024-02-08T08:35:19.808Z,99390.53
2024-02-08T08:37:46.627Z,99389.81
2024-02-08T08:40:39.947Z,99373.53
2024-02-08T08:43:11.895Z,99372.84
2024-02-08T08:45:42.302Z,99358.28
2024-02-08T08:48:09.253Z,99349.78
2024-02-08T08:50:38.630Z,99339.50
2024-02-08T08:53:20.819Z,99334.41
2024-02-08T08:57:26.493Z,99316.31
2024-02-08T08:59:54.316Z,99312.00
2024-02-08T09:02:21.326Z,99304.31
2024-02-08T09:04:48.315Z,99293.97
2024-02-08T09:07:18.733Z,99293.97
2024-02-08T09:10:06.239Z,99212.16
2024-02-08T09:12:39.381Z,99279.34
2024-02-08T09:15:21.271Z,99281.09
2024-02-08T09:17:59.475Z,99262.06
2024-02-08T09:20:37.263Z,99256.91
2024-02-08T09:23:14.521Z,99263.00
2024-02-08T09:25:48.548Z,99254.38
2024-02-08T09:28:26.513Z,99254.31
2024-02-08T09:31:01.419Z,99244.00
2024-02-08T09:33:47.206Z,99231.91
2024-02-08T09:36:15.687Z,99092.59
2024-02-08T09:38:52.404Z,99216.34
2024-02-08T09:41:25.910Z,99209.41
2024-02-08T09:44:00.713Z,99180.78
2024-02-08T09:46:35.561Z,99206.91
2024-02-08T09:49:18.814Z,99186.03
2024-02-08T09:51:54.692Z,99189.59
2024-02-08T09:54:33.407Z,99177.50
2024-02-08T09:57:23.178Z,99182.78
2024-02-08T10:00:01.658Z,99175.91
2024-02-08T10:02:35.740Z,99170.69
2024-02-08T10:05:31.903Z,99169.03
2024-02-08T10:08:10.393Z,99162.19
2024-02-08T10:10:46.162Z,99103.03
2024-02-08T10:13:26.791Z,99153.56
2024-02-08T10:15:57.416Z,99172.69
2024-02-08T10:18:35.041Z,99147.53
2024-02-08T10:21:14.971Z,99137.16
2024-02-08T10:24:01.155Z,99138.09
2024-02-08T10:26:41.487Z,99152.03
2024-02-08T10:29:15.886Z,99155.53
2024-02-08T10:31:53.680Z,99141.66
2024-02-08T10:34:34.063Z,99142.56
2024-02-08T10:37:01.470Z,99136.50
2024-02-08T10:39:30.490Z,99130.41
2024-02-08T10:42:00.590Z,99136.50
2024-02-08T10:44:31.120Z,99143.47
2024-02-08T10:47:08.120Z,99136.56
2024-02-08T10:49:44.331Z,99084.41
2024-02-08T10:52:21.731Z,99139.16
2024-02-08T10:54:58.389Z,99095.72
2024-02-08T10:57:38.993Z,99140.91
2024-02-08T11:00:25.298Z,99143.53
2024-02-08T11:03:02.065Z,99143.53
2024-02-08T11:05:30.412Z,99136.59
2024-02-08T11:07:59.493Z,99141.81
2024-02-08T11:10:33.709Z,99157.44
2024-02-08T11:13:12.272Z,99034.97
2024-02-08T11:15:50.760Z,99126.19
2024-02-08T11:18:37.379Z,99130.53
2024-02-08T11:21:05.870Z,99130.53
2024-02-08T11:23:33.971Z,99137.47
2024-02-08T11:26:07.803Z,99134.03
2024-02-08T11:28:49.819Z,99141.81
2024-02-08T11:31:18.112Z,99096.66
2024-02-08T11:33:50.813Z,99123.56
2024-02-08T11:36:25.200Z,99127.94
2024-02-08T11:39:11.910Z,99118.38
2024-02-08T11:41:44.259Z,99118.34
2024-02-08T11:44:13.041Z,99093.19
2024-02-08T11:46:47.671Z,99114.03
2024-02-08T11:49:33.380Z,99130.56
2024-02-08T11:52:08.361Z,99111.44
2024-02-08T11:54:39.326Z,99121.84
2024-02-08T11:57:14.331Z,99067.97
2024-02-08T11:59:46.655Z,99120.09
2024-02-08T12:02:18.219Z,99114.03
2024-02-08T12:04:49.789Z,99077.53
2024-02-08T12:07:21.974Z,99107.94
2024-02-08T12:10:01.875Z,99109.66
2024-02-08T12:12:31.522Z,99096.63
2024-02-08T12:15:03.012Z,99081.00
2024-02-08T12:17:29.994Z,99089.66
2024-02-08T12:20:02.941Z,99090.53
2024-02-08T12:22:31.853Z,99088.81
2024-02-08T12:25:03.032Z,99077.53
2024-02-08T12:27:32.540Z,99083.59
2024-02-08T12:29:59.920Z,99084.47
2024-02-08T12:32:34.835Z,99078.38
2024-02-08T12:35:15.054Z,99079.25
2024-02-08T12:37:44.528Z,99087.94
2024-02-08T12:40:15.885Z,99074.84
2024-02-08T12:42:44.950Z,99001.94
2024-02-08T12:45:19.233Z,99061.81
2024-02-08T12:47:50.998Z,99062.66
2024-02-08T12:50:25.214Z,99068.72
2024-02-08T12:52:59.036Z,99073.94
2024-02-08T12:55:31.131Z,99062.63
2024-02-08T12:58:14.921Z,99060.84
2024-02-08T13:00:46.501Z,99053.06
2024-02-08T13:03:16.735Z,99052.16
2024-02-08T13:05:45.699Z,99058.22
2024-02-08T13:08:20.098Z,99058.22
2024-02-08T13:10:57.588Z,99051.25
2024-02-08T13:13:27.357Z,99000.97
2024-02-08T13:16:05.549Z,99043.44
2024-02-08T13:18:32.438Z,99036.44
2024-02-08T13:21:00.025Z,99041.66
2024-02-08T13:23:30.444Z,99025.13
2024-02-08T13:26:01.522Z,99022.50
2024-02-08T13:28:28.679Z,99014.72
2024-02-08T13:30:57.393Z,99011.25
2024-02-08T13:33:24.533Z,99019.91
2024-02-08T13:35:54.330Z,99015.56
2024-02-08T13:38:26.161Z,99011.22
2024-02-08T13:41:00.758Z,98974.78
2024-02-08T13:43:32.228Z,98993.00
2024-02-08T13:46:02.111Z,99002.56
2024-02-08T13:48:30.782Z,98994.75
2024-02-08T13:51:07.507Z,98983.44
2024-02-08T13:53:38.089Z,98979.09
2024-02-08T13:56:07.244Z,98974.72
2024-02-08T13:58:38.114Z,98958.28
2024-02-08T14:01:07.925Z,98968.66
2024-02-08T14:03:36.396Z,98967.81
2024-02-08T14:06:03.581Z,98960.88
2024-02-08T14:08:31.352Z,98932.28
2024-02-08T14:11:01.857Z,98963.50
2024-02-08T14:13:36.772Z,98950.44
2024-02-08T14:16:17.483Z,98865.47
2024-02-08T14:18:50.919Z,98937.41
2024-02-08T14:21:21.858Z,98936.53
2024-02-08T14:23:53.190Z,98927.88
2024-02-08T14:26:20.549Z,98882.78
2024-02-08T14:28:47.788Z,98917.44
2024-02-08T14:31:18.331Z,98914.81
2024-02-08T14:33:48.436Z,98902.63
2024-02-08T14:36:20.108Z,98893.94
2024-02-08T14:38:47.611Z,98888.75
2024-02-08T14:41:35.972Z,98894.00
2024-02-08T14:44:10.493Z,98890.56
2024-02-08T14:46:42.133Z,98888.84
2024-02-08T14:49:28.049Z,98881.88
2024-02-08T14:52:03.743Z,98870.59
2024-02-08T14:54:40.407Z,98879.31
2024-02-08T14:57:11.629Z,98872.34
2024-02-08T14:59:52.797Z,98855.03
2024-02-08T15:02:30.861Z,98862.84
2024-02-08T15:05:02.275Z,98854.16
2024-02-08T15:07:49.033Z,98852.44
2024-02-08T15:10:22.837Z,98844.59
2024-02-08T15:12:58.329Z,98844.59
2024-02-08T15:15:32.832Z,98840.28
2024-02-08T15:18:16.299Z,98836.81
2024-02-08T15:20:48.470Z,98847.25
2024-02-08T15:23:50.139Z,98841.19
2024-02-08T15:26:26.046Z,98827.25
2024-02-08T15:28:58.471Z,98829.88
2024-02-08T15:31:40.037Z,98813.41
2024-02-08T15:34:21.059Z,98809.97
2024-02-08T15:37:06.689Z,98769.25
2024-02-08T15:39:35.915Z,98819.47
2024-02-08T15:42:19.119Z,98733.75
2024-02-08T15:44:54.063Z,98797.78
2024-02-08T15:47:21.938Z,98806.50
2024-02-08T15:49:59.855Z,98790.00
2024-02-08T15:52:30.794Z,98788.25
2024-02-08T15:55:00.894Z,98782.16
2024-02-08T15:57:33.993Z,98756.19
2024-02-08T16:00:01.639Z,98766.53
2024-02-08T16:02:28.764Z,98691.22
2024-02-08T16:05:13.357Z,98755.22
2024-02-08T16:07:48.046Z,98755.22
2024-02-08T16:10:25.968Z,98756.13
2024-02-08T16:13:06.501Z,98730.97
2024-02-08T16:15:51.196Z,98745.69
2024-02-08T16:18:28.630Z,98734.44
2024-02-08T16:20:56.548Z,98737.91
2024-02-08T16:23:45.222Z,98732.75
2024-02-08T16:26:13.995Z,98716.31
2024-02-08T16:28:51.118Z,98736.25
2024-02-08T16:31:18.280Z,98727.56
2024-02-08T16:33:49.830Z,98727.56
2024-02-08T16:36:27.434Z,98721.53
2024-02-08T16:39:16.083Z,98664.41
2024-02-08T16:42:00.768Z,98713.75
2024-02-08T16:44:36.680Z,98715.50
2024-02-08T16:47:07.724Z,98719.88
2024-02-08T16:49:42.214Z,98710.34
2024-02-08T16:52:23.535Z,98719.00
2024-02-08T16:55:13.255Z,98699.09
2024-02-08T16:57:40.890Z,98717.34
2024-02-08T17:00:27.341Z,98635.13
2024-02-08T17:03:26.011Z,98721.69
2024-02-08T17:05:57.409Z,98702.66
2024-02-08T17:08:31.325Z,98707.88
2024-02-08T17:11:02.657Z,98707.00
2024-02-08T17:13:46.182Z,98707.91
2024-02-08T17:16:32.082Z,98694.03
2024-02-08T17:19:20.357Z,98685.38
2024-02-08T17:21:52.957Z,98706.19
2024-02-08T17:24:38.477Z,98584.09
2024-02-08T17:27:19.746Z,98682.78
2024-02-08T17:29:52.445Z,98700.13
2024-02-08T17:32:31.634Z,98688.84
2024-02-08T17:35:01.020Z,98687.13
2024-02-08T17:37:46.131Z,98675.88
2024-02-08T17:40:20.255Z,98682.78
2024-02-08T17:42:47.933Z,98675.03
2024-02-08T17:45:17.680Z,98662.00
2024-02-08T17:47:44.954Z,98675.03
2024-02-08T17:50:31.111Z,98603.16
2024-02-08T17:52:58.167Z,98638.63
2024-02-08T17:55:34.570Z,98661.16
2024-02-08T17:58:02.732Z,98648.16
2024-02-08T18:00:31.935Z,98642.94
2024-02-08T18:03:01.197Z,98630.81
2024-02-08T18:05:37.245Z,98632.53
2024-02-08T18:08:10.994Z,98632.53
2024-02-08T18:10:45.283Z,98625.59
2024-02-08T18:13:15.224Z,98633.41
2024-02-08T18:15:46.120Z,98628.19
2024-02-08T18:18:15.044Z,98616.09
2024-02-08T18:20:44.783Z,98610.00
2024-02-08T18:23:20.282Z,98612.63
2024-02-08T18:25:52.243Z,98606.56
2024-02-08T18:28:21.403Z,98603.97
2024-02-08T18:30:57.252Z,98599.66
2024-02-08T18:33:29.038Z,98600.50
2024-02-08T18:36:01.457Z,98592.69
2024-02-08T18:38:34.848Z,98583.22
2024-02-08T18:41:07.536Z,98582.34
2024-02-08T18:43:34.948Z,98571.06
2024-02-08T18:46:07.295Z,98508.81
2024-02-08T18:48:42.144Z,98555.50
2024-02-08T18:51:10.211Z,98556.34
2024-02-08T18:53:39.364Z,98541.66
2024-02-08T18:56:19.633Z,98546.84
2024-02-08T18:58:53.243Z,98549.47
2024-02-08T19:01:22.566Z,98533.03
2024-02-08T19:03:49.883Z,98546.88
2024-02-08T19:06:17.159Z,98531.31
2024-02-08T19:08:45.420Z,98518.31
2024-02-08T19:11:12.614Z,98449.16
2024-02-08T19:13:42.140Z,98499.25
2024-02-08T19:16:17.763Z,98427.50
2024-02-08T19:18:53.675Z,98491.47
2024-02-08T19:21:24.707Z,98468.94
2024-02-08T19:23:56.892Z,98461.19
2024-02-08T19:26:26.555Z,98452.53
2024-02-08T19:28:53.670Z,98441.28
2024-02-08T19:31:20.866Z,98436.09
2024-02-08T19:33:52.454Z,98433.47
2024-02-08T19:36:25.102Z,98427.44
2024-02-08T19:38:56.049Z,98416.22
2024-02-08T19:41:31.804Z,98411.91
2024-02-08T19:44:02.601Z,98411.06
2024-02-08T19:46:30.371Z,98384.25
2024-02-08T19:49:02.890Z,98357.47
2024-02-08T19:51:32.330Z,98334.16
2024-02-08T19:54:00.541Z,98373.84
2024-02-08T19:56:34.956Z,98368.69
2024-02-08T19:59:06.781Z,98301.31
2024-02-08T20:01:38.988Z,98351.38
2024-02-08T20:04:14.863Z,98328.06
2024-02-08T20:06:42.856Z,98273.59
2024-02-08T20:09:13.094Z,98268.41
2024-02-08T20:11:43.033Z,98319.38
2024-02-08T20:14:13.169Z,98315.94
2024-02-08T20:16:43.189Z,98312.44
2024-02-08T20:19:14.783Z,98281.38
2024-02-08T20:21:41.682Z,98271.00
2024-02-08T20:24:13.064Z,98286.53
2024-02-08T20:26:40.084Z,98279.63
2024-02-08T20:29:06.762Z,98269.25
2024-02-08T20:31:33.524Z,98257.97
2024-02-08T20:34:04.537Z,98231.22
2024-02-08T20:36:33.955Z,98215.69
2024-02-08T20:39:00.646Z,98243.28
2024-02-08T20:41:27.378Z,98245.03
2024-02-08T20:43:56.911Z,98225.16
2024-02-08T20:46:23.976Z,98232.03
2024-02-08T20:48:55.620Z,98240.66
2024-02-08T20:51:23.418Z,98223.38
2024-02-08T20:53:52.693Z,98227.69
2024-02-08T20:56:27.445Z,98219.91
2024-02-08T20:58:57.850Z,98211.25
2024-02-08T21:01:28.591Z,98200.03
2024-02-08T21:03:57.367Z,98187.09
2024-02-08T21:06:26.236Z,98198.28
2024-02-08T21:08:55.347Z,98210.38
2024-02-08T21:11:22.607Z,98193.91
2024-02-08T21:13:50.434Z,98180.91
2024-02-08T21:16:20.797Z,98183.50
2024-02-08T21:18:47.660Z,98178.38
2024-02-08T21:21:14.882Z,98175.72
2024-02-08T21:23:42.141Z,98191.28
2024-02-08T21:26:16.423Z,98178.31
2024-02-08T21:28:52.244Z,98161.00
2024-02-08T21:31:20.281Z,98178.25
2024-02-08T21:33:51.247Z,98165.28
2024-02-08T21:36:19.064Z,98169.56
2024-02-08T21:38:50.269Z,98173.88
2024-02-08T21:41:19.500Z,98166.97
2024-02-08T21:43:49.178Z,98166.97
2024-02-08T21:46:18.915Z,98134.13
2024-02-08T21:48:47.479Z,98166.91
2024-02-08T21:51:16.322Z,98163.41
2024-02-08T21:53:43.003Z,98158.22
2024-02-08T21:56:13.990Z,98159.91
2024-02-08T21:58:41.089Z,98144.31
2024-02-08T22:03:51.720Z,98130.41
2024-02-08T22:06:21.860Z,98051.94
2024-02-08T22:08:49.691Z,98113.97
2024-02-08T22:11:16.981Z,98117.34
2024-02-08T22:13:43.845Z,98130.25
2024-02-08T22:16:17.261Z,98113.78
2024-02-08T22:18:47.557Z,98116.31
2024-02-08T22:21:18.049Z,98109.38
2024-02-08T22:23:45.448Z,98108.50
2024-02-08T22:26:14.134Z,98098.97
2024-02-08T22:28:44.063Z,98104.13
2024-02-08T22:31:13.712Z,98091.22
2024-02-08T22:33:40.447Z,98036.91
2024-02-08T22:36:17.506Z,98053.28
2024-02-08T22:38:46.911Z,98104.03
2024-02-08T22:41:17.464Z,98099.69
2024-02-08T22:43:44.248Z,98080.66
2024-02-08T22:46:13.296Z,98084.88
2024-02-08T22:48:40.080Z,98080.53
2024-02-08T22:51:07.516Z,98072.75
2024-02-08T22:53:35.584Z,98078.78
2024-02-08T22:56:02.486Z,98080.47
2024-02-08T22:58:31.504Z,98071.81
2024-02-08T23:01:23.570Z,98070.81
2024-02-08T23:03:51.648Z,98070.78
2024-02-08T23:06:22.874Z,98068.19
2024-02-08T23:08:49.724Z,98069.84
2024-02-08T23:11:16.500Z,98060.28
2024-02-08T23:13:48.268Z,98068.97
2024-02-08T23:16:19.299Z,98057.69
2024-02-08T23:18:49.918Z,98056.78
2024-02-08T23:21:29.526Z,98046.38
2024-02-08T23:23:56.668Z,98050.69
2024-02-08T23:26:23.719Z,98035.94
2024-02-08T23:28:53.879Z,98037.69
2024-02-08T23:31:22.120Z,98024.69
2024-02-08T23:33:48.974Z,98043.72
2024-02-08T23:36:20.952Z,98023.75
2024-02-08T23:38:50.191Z,97948.03
2024-02-08T23:41:18.900Z,98032.34
2024-02-08T23:43:45.753Z,97999.66
2024-02-08T23:46:12.741Z,98023.63
2024-02-08T23:48:44.617Z,97972.00
2024-02-08T23:51:14.724Z,98027.06
2024-02-08T23:53:44.548Z,97933.22
2024-02-08T23:56:11.589Z,97998.66
2024-02-08T23:58:38.530Z,98025.28
